createdAt,value
2023-08-14T00:00:36.182Z,1.02
2023-08-14T00:05:38.060Z,0.70
2023-08-14T00:10:40.055Z,0.70
2023-08-14T00:15:41.989Z,1.05
2023-08-14T00:20:45.576Z,0.80
2023-08-14T00:25:47.534Z,0.90
2023-08-14T00:30:49.549Z,0.73
2023-08-14T00:35:51.712Z,1.00
2023-08-14T00:40:54.394Z,0.77
2023-08-14T00:45:57.495Z,0.52
2023-08-14T00:51:00.123Z,0.80
2023-08-14T00:56:04.005Z,0.70
2023-08-14T01:01:07.404Z,0.70
2023-08-14T01:06:09.428Z,0.77
2023-08-14T01:11:20.866Z,0.80
2023-08-14T01:16:28.769Z,0.52
2023-08-14T01:21:59.761Z,0.70
2023-08-14T01:27:02.456Z,0.60
2023-08-14T01:32:04.506Z,0.70
2023-08-14T01:37:24.605Z,0.60
2023-08-14T01:42:33.943Z,0.77
2023-08-14T01:47:36.167Z,1.05
2023-08-14T01:52:38.116Z,0.75
2023-08-14T01:57:40.168Z,0.50
2023-08-14T02:02:42.188Z,0.73
2023-08-14T02:07:44.308Z,0.88
2023-08-14T02:12:46.280Z,0.68
2023-08-14T02:17:48.265Z,0.60
2023-08-14T02:22:50.332Z,0.70
2023-08-14T02:27:52.383Z,0.70
2023-08-14T02:32:54.394Z,0.65
2023-08-14T02:37:56.419Z,0.50
2023-08-14T02:43:00.637Z,0.75
2023-08-14T02:48:02.745Z,0.77
2023-08-14T02:53:04.863Z,0.70
2023-08-14T02:58:06.875Z,0.60
2023-08-14T03:03:08.941Z,0.90
2023-08-14T03:08:10.941Z,0.68
2023-08-14T03:13:12.931Z,0.68
2023-08-14T03:18:14.848Z,0.80
2023-08-14T03:23:16.982Z,0.65
2023-08-14T03:28:18.851Z,1.00
2023-08-14T03:33:20.833Z,0.68
2023-08-14T03:38:22.931Z,0.95
2023-08-14T03:43:24.855Z,0.55
2023-08-14T03:48:26.771Z,0.55
2023-08-14T03:53:28.735Z,0.47
2023-08-14T03:58:30.632Z,0.73
2023-08-14T04:03:32.680Z,0.60
2023-08-14T04:08:34.818Z,0.80
2023-08-14T04:13:36.788Z,0.70
2023-08-14T04:18:38.657Z,0.80
2023-08-14T04:23:40.572Z,0.57
2023-08-14T04:28:42.673Z,0.55
2023-08-14T04:33:44.646Z,0.70
2023-08-14T04:38:46.569Z,0.63
2023-08-14T04:43:48.517Z,0.60
2023-08-14T04:48:50.501Z,0.68
2023-08-14T04:53:52.803Z,0.50
2023-08-14T04:58:55.096Z,0.50
2023-08-14T05:03:57.115Z,0.57
2023-08-14T05:09:00.460Z,0.50
2023-08-14T05:14:04.243Z,0.60
2023-08-14T05:19:06.213Z,0.35
2023-08-14T05:24:08.286Z,0.82
2023-08-14T05:29:10.553Z,0.47
2023-08-14T05:34:12.581Z,0.73
2023-08-14T05:39:19.802Z,0.75
2023-08-14T05:44:21.912Z,0.60
2023-08-14T05:49:23.945Z,0.68
2023-08-14T05:54:26.019Z,0.50
2023-08-14T05:59:27.886Z,0.63
2023-08-14T06:04:29.870Z,0.80
2023-08-14T06:09:31.789Z,0.52
2023-08-14T06:14:33.663Z,0.60
2023-08-14T06:19:35.514Z,0.60
2023-08-14T06:24:37.351Z,0.57
2023-08-14T06:29:39.509Z,0.60
2023-08-14T06:34:41.706Z,1.10
2023-08-14T06:39:43.862Z,0.73
2023-08-14T06:44:46.074Z,0.80
2023-08-14T06:49:47.953Z,0.50
2023-08-14T06:54:49.973Z,0.60
2023-08-14T06:59:51.975Z,0.77
2023-08-14T07:04:53.894Z,1.17
2023-08-14T07:09:56.510Z,0.90
2023-08-14T07:14:58.471Z,0.95
2023-08-14T07:20:00.295Z,1.10
2023-08-14T07:25:02.208Z,0.85
2023-08-14T07:30:06.782Z,1.02
2023-08-14T07:35:08.816Z,0.70
2023-08-14T07:40:11.469Z,0.60
2023-08-14T07:45:13.273Z,0.55
2023-08-14T07:50:15.413Z,0.90
2023-08-14T07:55:17.503Z,0.55
2023-08-14T08:00:21.555Z,0.60
2023-08-14T08:05:23.557Z,0.50
2023-08-14T08:10:25.489Z,0.60
2023-08-14T08:15:27.596Z,0.50
2023-08-14T08:20:29.598Z,0.50
2023-08-14T08:25:31.998Z,0.80
2023-08-14T08:30:33.933Z,0.50
2023-08-14T08:35:35.846Z,0.88
2023-08-14T08:40:37.997Z,0.63
2023-08-14T08:45:45.217Z,0.60
2023-08-14T08:50:47.442Z,0.65
2023-08-14T08:55:50.285Z,0.57
2023-08-14T09:00:53.583Z,0.65
2023-08-14T09:05:55.651Z,0.57
2023-08-14T09:10:57.640Z,0.98
2023-08-14T09:16:01.017Z,1.02
2023-08-14T09:21:03.922Z,1.30
2023-08-14T09:26:06.062Z,0.68
2023-08-14T09:31:09.517Z,0.60
2023-08-14T09:36:13.216Z,1.05
2023-08-14T09:41:15.107Z,0.80
2023-08-14T09:46:19.777Z,1.10
2023-08-14T09:51:21.948Z,0.80
2023-08-14T09:56:24.924Z,0.80
2023-08-14T10:01:27.966Z,0.73
2023-08-14T10:06:29.995Z,1.10
2023-08-14T10:11:34.150Z,0.75
2023-08-14T10:16:39.677Z,0.77
2023-08-14T10:21:44.835Z,0.60
2023-08-14T10:26:47.803Z,0.70
2023-08-14T10:31:50.081Z,1.02
2023-08-14T10:36:55.092Z,0.50
2023-08-14T10:42:00.980Z,0.63
2023-08-14T10:47:13.052Z,0.63
2023-08-14T10:52:16.669Z,0.60
2023-08-14T10:57:19.548Z,0.80
2023-08-14T11:02:21.592Z,0.70
2023-08-14T11:07:27.872Z,1.10
2023-08-14T11:12:29.772Z,0.90
2023-08-14T11:17:31.743Z,0.57
2023-08-14T11:22:33.713Z,0.75
2023-08-14T11:27:35.653Z,0.70
2023-08-14T11:32:37.808Z,1.20
2023-08-14T11:37:39.845Z,0.93
2023-08-14T11:42:41.979Z,0.80
2023-08-14T11:47:51.764Z,1.05
2023-08-14T11:52:54.910Z,1.10
2023-08-14T11:58:00.666Z,1.25
2023-08-14T12:03:02.706Z,1.40
2023-08-14T12:08:05.203Z,1.10
2023-08-14T12:13:07.479Z,1.05
2023-08-14T12:18:14.452Z,0.95
2023-08-14T12:23:17.498Z,1.20
2023-08-14T12:28:20.380Z,0.98
2023-08-14T12:33:22.319Z,1.05
2023-08-14T12:38:24.332Z,1.30
2023-08-14T12:43:36.484Z,0.80
2023-08-14T12:48:41.098Z,1.05
2023-08-14T12:53:43.194Z,1.08
2023-08-14T12:58:48.540Z,1.42
2023-08-14T13:03:51.324Z,0.98
2023-08-14T13:08:53.190Z,1.50
2023-08-14T13:13:55.277Z,1.20
2023-08-14T13:18:57.234Z,0.95
2023-08-14T13:23:59.161Z,0.90
2023-08-14T13:29:01.185Z,1.25
2023-08-14T13:34:03.428Z,1.30
2023-08-14T13:39:07.051Z,1.50
2023-08-14T13:44:09.029Z,1.85
2023-08-14T13:49:11.352Z,1.35
2023-08-14T13:54:13.398Z,1.40
2023-08-14T13:59:15.454Z,1.88
2023-08-14T14:04:17.326Z,1.30
2023-08-14T14:09:19.232Z,1.75
2023-08-14T14:14:21.117Z,1.70
2023-08-14T14:19:23.102Z,1.50
2023-08-14T14:24:26.034Z,1.60
2023-08-14T14:29:31.061Z,1.42
2023-08-14T14:34:33.223Z,1.30
2023-08-14T14:39:35.323Z,1.10
2023-08-14T14:44:37.444Z,1.88
2023-08-14T14:49:39.289Z,1.20
2023-08-14T14:54:41.158Z,1.77
2023-08-14T14:59:43.592Z,1.50
2023-08-14T15:04:46.900Z,1.40
2023-08-14T15:09:48.743Z,1.25
2023-08-14T15:14:50.624Z,1.30
2023-08-14T15:19:52.625Z,1.45
2023-08-14T15:25:00.816Z,1.48
2023-08-14T15:30:03.429Z,1.65
2023-08-14T15:35:05.691Z,1.38
2023-08-14T15:40:08.182Z,1.40
2023-08-14T15:45:12.716Z,1.80
2023-08-14T15:50:16.307Z,1.55
2023-08-14T15:55:18.178Z,1.30
2023-08-14T16:00:20.361Z,1.17
2023-08-14T16:05:22.216Z,1.48
2023-08-14T16:10:24.228Z,1.98
2023-08-14T16:15:26.021Z,1.25
2023-08-14T16:20:27.959Z,2.03
2023-08-14T16:25:29.887Z,1.60
2023-08-14T16:30:34.002Z,1.73
2023-08-14T16:35:36.051Z,2.08
2023-08-14T16:40:43.688Z,1.77
2023-08-14T16:45:49.513Z,1.50
2023-08-14T16:50:52.223Z,2.00
2023-08-14T16:55:54.110Z,1.77
2023-08-14T17:00:55.975Z,1.25
2023-08-14T17:06:05.715Z,1.58
2023-08-14T17:11:07.709Z,1.80
2023-08-14T17:16:12.774Z,1.10
2023-08-14T17:21:15.035Z,1.60
2023-08-14T17:26:17.043Z,1.48
2023-08-14T17:31:18.998Z,1.88
2023-08-14T17:36:21.071Z,1.60
2023-08-14T17:41:22.943Z,2.53
2023-08-14T17:46:24.907Z,2.15
2023-08-14T17:51:27.031Z,1.55
2023-08-14T17:56:29.015Z,1.52
2023-08-14T18:01:33.655Z,1.67
2023-08-14T18:06:36.058Z,1.67
2023-08-14T18:11:38.012Z,2.00
2023-08-14T18:16:40.396Z,2.17
2023-08-14T18:21:42.301Z,1.98
2023-08-14T18:26:44.153Z,1.85
2023-08-14T18:31:46.503Z,1.48
2023-08-14T18:36:51.798Z,1.90
2023-08-14T18:41:53.832Z,1.67
2023-08-14T18:46:55.868Z,1.52
2023-08-14T18:51:57.780Z,2.10
2023-08-14T18:56:59.840Z,1.83
2023-08-14T19:02:01.934Z,2.25
2023-08-14T19:07:03.716Z,1.90
2023-08-14T19:12:07.330Z,1.90
2023-08-14T19:17:09.301Z,1.60
2023-08-14T19:22:16.998Z,1.90
2023-08-14T19:27:19.152Z,1.60
2023-08-14T19:32:21.389Z,1.40
2023-08-14T19:37:23.926Z,1.73
2023-08-14T19:42:26.308Z,1.60
2023-08-14T19:47:29.825Z,1.90
2023-08-14T19:52:31.787Z,1.50
2023-08-14T19:57:33.813Z,1.70
2023-08-14T20:02:35.683Z,1.80
2023-08-14T20:07:37.637Z,1.77
2023-08-14T20:12:39.605Z,2.30
2023-08-14T20:17:41.576Z,2.03
2023-08-14T20:22:43.576Z,1.77
2023-08-14T20:27:45.491Z,1.60
2023-08-14T20:32:47.551Z,1.67
2023-08-14T20:37:49.704Z,1.58
2023-08-14T20:42:51.720Z,1.98
2023-08-14T20:47:53.583Z,1.60
2023-08-14T20:52:55.660Z,1.45
2023-08-14T20:57:57.655Z,1.30
2023-08-14T21:02:59.685Z,1.88
2023-08-14T21:08:01.752Z,1.73
2023-08-14T21:13:04.217Z,1.92
2023-08-14T21:18:09.014Z,2.28
2023-08-14T21:23:13.244Z,1.60
2023-08-14T21:28:15.849Z,1.85
2023-08-14T21:33:17.799Z,1.70
2023-08-14T21:38:19.737Z,2.45
2023-08-14T21:43:21.775Z,1.73
2023-08-14T21:48:23.718Z,2.22
2023-08-14T21:53:25.732Z,1.58
2023-08-14T21:58:27.556Z,2.20
2023-08-14T22:03:29.408Z,1.85
2023-08-14T22:08:31.692Z,1.58
2023-08-14T22:13:33.828Z,2.03
2023-08-14T22:18:35.916Z,1.33
2023-08-14T22:23:37.904Z,1.90
2023-08-14T22:28:40.770Z,1.90
2023-08-14T22:33:46.220Z,2.10
2023-08-14T22:38:48.336Z,1.60
2023-08-14T22:43:50.276Z,1.73
2023-08-14T22:48:52.200Z,1.40
2023-08-14T22:53:54.551Z,1.73
2023-08-14T22:58:56.431Z,1.75
2023-08-14T23:03:59.412Z,1.30
2023-08-14T23:09:01.356Z,1.58
2023-08-14T23:14:03.381Z,1.83
2023-08-14T23:19:05.471Z,1.48
2023-08-14T23:24:07.456Z,1.65
2023-08-14T23:29:09.414Z,1.60
2023-08-14T23:34:11.413Z,1.33
2023-08-14T23:39:13.525Z,2.03
2023-08-14T23:44:15.410Z,1.60
2023-08-14T23:49:17.255Z,1.45
2023-08-14T23:54:19.260Z,1.85
2023-08-14T23:59:21.138Z,1.23
